createdAt,value
2023-04-12T00:00:00.000Z,4.01
2023-04-12T00:15:00.000Z,4.08
2023-04-12T00:30:00.000Z,3.93
2023-04-12T00:45:00.000Z,4.05
2023-04-12T01:00:00.000Z,4.06
2023-04-12T01:15:00.000Z,4.14
2023-04-12T01:30:00.000Z,4.15
2023-04-12T01:45:00.000Z,3.96
2023-04-12T02:00:00.000Z,4.25
2023-04-12T02:15:00.000Z,4.27
2023-04-12T02:30:00.000Z,4.05
2023-04-12T02:45:00.000Z,4.07
2023-04-12T03:00:00.000Z,4.38
2023-04-12T03:15:00.000Z,4.18
2023-04-12T03:30:00.000Z,4.34
2023-04-12T03:45:00.000Z,4.38
2023-04-12T04:00:00.000Z,4.18
2023-04-12T04:15:00.000Z,4.18
2023-04-12T04:30:00.000Z,4.34
2023-04-12T04:45:00.000Z,4.46
2023-04-12T05:15:00.000Z,4.39
2023-04-12T05:30:00.000Z,4.22
2023-04-12T05:45:00.000Z,4.29
2023-04-12T06:00:00.000Z,4.2
2023-04-12T06:15:00.000Z,4.73
2023-04-12T06:30:00.000Z,4.21
2023-04-12T06:45:00.000Z,4.24
2023-04-12T07:00:00.000Z,4.05
2023-04-12T07:15:00.000Z,4.05
2023-04-12T07:30:00.000Z,4.13
2023-04-12T07:45:00.000Z,4.59
2023-04-12T08:00:00.000Z,5.49
2023-04-12T08:15:00.000Z,4.08
2023-04-12T08:30:00.000Z,4.25
2023-04-12T08:45:00.000Z,4.29
2023-04-12T09:00:00.000Z,4.39
2023-04-12T09:15:00.000Z,4.27
2023-04-12T09:30:00.000Z,4.06
2023-04-12T09:45:00.000Z,3.87
2023-04-12T10:00:00.000Z,4.09
2023-04-12T10:15:00.000Z,7.18
2023-04-12T10:30:00.000Z,4.16
2023-04-12T10:45:00.000Z,4.75
2023-04-12T11:00:00.000Z,3.8
2023-04-12T11:15:00.000Z,4.47
2023-04-12T11:30:00.000Z,4.27
2023-04-12T11:45:00.000Z,2.99
2023-04-12T12:00:00.000Z,2.38
2023-04-12T12:15:00.000Z,1.99
2023-04-12T12:30:00.000Z,1.66
2023-04-12T12:45:00.000Z,1.89
2023-04-12T13:00:00.000Z,1.86
2023-04-12T13:15:00.000Z,1.36
2023-04-12T13:30:00.000Z,1.59
2023-04-12T13:45:00.000Z,1.49
2023-04-12T14:00:00.000Z,1.47
2023-04-12T14:15:00.000Z,1.64
2023-04-12T14:30:00.000Z,2.06
2023-04-12T14:45:00.000Z,2.24
2023-04-12T15:00:00.000Z,2.76
2023-04-12T15:15:00.000Z,2.09
2023-04-12T15:30:00.000Z,1.94
2023-04-12T15:45:00.000Z,3.06
2023-04-12T16:00:00.000Z,1.98
2023-04-12T16:15:00.000Z,2.26
2023-04-12T16:30:00.000Z,4.18
2023-04-12T16:45:00.000Z,6.6
2023-04-12T17:00:00.000Z,9.08
2023-04-12T17:15:00.000Z,6.96
2023-04-12T17:30:00.000Z,4.88
2023-04-12T17:45:00.000Z,11.44
2023-04-12T18:00:00.000Z,4.6
2023-04-12T18:15:00.000Z,5.54
2023-04-12T18:30:00.000Z,8.65
2023-04-12T18:45:00.000Z,7.59
2023-04-12T19:00:00.000Z,6.93
2023-04-12T19:15:00.000Z,7.87
2023-04-12T19:30:00.000Z,10.96
2023-04-12T19:45:00.000Z,12.24
2023-04-12T20:00:00.000Z,13.96
2023-04-12T20:15:00.000Z,17.85
2023-04-12T20:30:00.000Z,15.36
2023-04-12T20:45:00.000Z,4.45
2023-04-12T21:00:00.000Z,2.38
2023-04-12T21:15:00.000Z,2.26
2023-04-12T21:30:00.000Z,1.8
2023-04-12T21:45:00.000Z,1.27
2023-04-12T22:00:00.000Z,1.17
2023-04-12T22:15:00.000Z,1.22
2023-04-12T22:30:00.000Z,1.14
2023-04-12T22:45:00.000Z,1.53
2023-04-12T23:00:00.000Z,1.16
2023-04-12T23:15:00.000Z,1.05
2023-04-12T23:30:00.000Z,1.19
2023-04-12T23:45:00.000Z,1.18
